LS Concorde — ZDHJ7 — position and weather

sailwx.info

Track history (hours):
 
Tides and Currents Weather Stations Pressure Air Temp Water Temp Dewpoint Dewpoint Depression Visibility Wind Speed Wind Dir Waves Ship Positions

LS Concorde

Last reported at 2017-Feb-25 19:33 UTC. Time now 2017-Feb-26 19:03 UTC.
Position N 53°09' E 004°30'.

Length 99 m; draft 5.3 m.

Type: Tanker. MMSI: 236329000.

Date/timePositionNaut miles runAvg speedWind from/ knotsBaromVisibWave heightAir tempDewpointWater temp
2017-Feb-25 19:33N 53°09' E 004°30'1010.2
2017-Feb-25 18:33N 53°00' E 004°21'1010.4
2017-Feb-25 17:33N 52°51' E 004°14'1110.9
2017-Feb-25 16:33N 52°43' E 004°02'2510.9
2017-Feb-25 14:16N 52°24' E 003°36'2311.6
2017-Feb-25 12:16N 52°01' E 003°25'811.3
2017-Feb-25 11:31N 51°53' E 003°22'1010.3
2017-Feb-25 10:33N 51°44' E 003°16'1111.2
2017-Feb-25 09:33N 51°34' E 003°25'1010.2
2017-Feb-25 08:34N 51°26' E 003°35'10 9.5
2017-Feb-25 07:34N 51°21' E 003°48'2 2.1
2017-Feb-25 06:33N 51°19' E 003°49'3 3.0
2017-Feb-25 05:33N 51°16' E 003°50'4 4.3
2017-Feb-25 04:33N 51°12' E 003°48'0 0.0
2017-Feb-25 03:33N 51°12' E 003°48'0 0.0
2017-Feb-25 02:33N 51°12' E 003°48'0 0.0
2017-Feb-25 01:33N 51°12' E 003°48'0 0.0
2017-Feb-25 00:33N 51°12' E 003°48'0 0.0
2017-Feb-24 23:33N 51°12' E 003°48'0 0.0
2017-Feb-24 22:33N 51°12' E 003°48'0 0.0
2017-Feb-24 21:33N 51°12' E 003°48'0 0.0
2017-Feb-24 20:33N 51°12' E 003°48'0 0.0
2017-Feb-24 19:33N 51°12' E 003°48'0 0.0
2017-Feb-24 18:33N 51°12' E 003°48'0 0.0
2017-Feb-24 17:33N 51°12' E 003°48'0 0.0
2017-Feb-24 16:33N 51°12' E 003°48'0 0.0
2017-Feb-24 15:33N 51°12' E 003°48'0 0.0
2017-Feb-24 14:33N 51°12' E 003°48'0 0.0
2017-Feb-24 13:33N 51°12' E 003°48'0 0.0
2017-Feb-24 12:30N 51°12' E 003°48'0 0.0
2017-Feb-24 11:33N 51°12' E 003°48'0 0.0
2017-Feb-24 10:33N 51°12' E 003°48'0 0.0
2017-Feb-24 09:33N 51°12' E 003°48'0 0.0
2017-Feb-24 08:30N 51°12' E 003°48'0 0.0
2017-Feb-24 07:33N 51°12' E 003°48'0 0.0
2017-Feb-24 06:33N 51°12' E 003°48'0 0.0
2017-Feb-24 05:33N 51°12' E 003°48'0 0.0
2017-Feb-24 04:33N 51°12' E 003°48'0 0.0
2017-Feb-24 03:33N 51°12' E 003°48'0 0.0
2017-Feb-24 02:33N 51°12' E 003°48'0 0.0
2017-Feb-24 01:33N 51°12' E 003°48'0 0.0
2017-Feb-24 00:33N 51°12' E 003°48'0 0.0
2017-Feb-23 23:33N 51°12' E 003°48'0 0.0
2017-Feb-23 22:33N 51°12' E 003°48'0 0.0
2017-Feb-23 21:33N 51°12' E 003°48'0 0.0
2017-Feb-23 20:30N 51°12' E 003°48'0 0.0
2017-Feb-23 19:33N 51°12' E 003°48'0 0.0
2017-Feb-23 18:33N 51°12' E 003°48'0 0.0
2017-Feb-23 17:34N 51°12' E 003°48'3 2.8
2017-Feb-23 16:33N 51°10' E 003°47'0 0.0
2017-Feb-23 15:33N 51°10' E 003°47'0 0.0
2017-Feb-23 14:33N 51°10' E 003°47'0 0.0
2017-Feb-23 13:30N 51°10' E 003°47'0 0.0
2017-Feb-23 12:33N 51°10' E 003°47'0 0.0
2017-Feb-23 11:33N 51°10' E 003°47'0 0.0
2017-Feb-23 10:30N 51°10' E 003°47'0 0.0
2017-Feb-23 09:33N 51°10' E 003°47'0 0.0
2017-Feb-23 08:33N 51°10' E 003°47'0 0.0
2017-Feb-23 07:33N 51°10' E 003°47'0 0.0
2017-Feb-23 06:33N 51°10' E 003°47'0 0.0
2017-Feb-23 05:33N 51°10' E 003°47'0 0.0
2017-Feb-23 04:33N 51°10' E 003°47'0 0.0
2017-Feb-23 03:33N 51°10' E 003°47'0 0.0
2017-Feb-23 02:33N 51°10' E 003°47'0 0.0
2017-Feb-23 01:33N 51°10' E 003°47'0 0.0
2017-Feb-23 00:33N 51°10' E 003°47'0 0.0
2017-Feb-22 23:33N 51°10' E 003°47'0 0.0
2017-Feb-22 22:33N 51°10' E 003°47'0 0.0
2017-Feb-22 21:33N 51°10' E 003°47'0 0.0
2017-Feb-22 20:30N 51°10' E 003°47'0 0.0
2017-Feb-22 19:33N 51°10' E 003°47'0 0.0
2017-Feb-22 18:33N 51°10' E 003°47'0 0.0
2017-Feb-22 17:33N 51°10' E 003°47'0 0.0
2017-Feb-22 16:33N 51°10' E 003°47'0 0.0
2017-Feb-22 15:33N 51°10' E 003°47'0 0.0
2017-Feb-22 14:33N 51°10' E 003°47'0 0.0
2017-Feb-22 13:33N 51°10' E 003°47'0 0.0
2017-Feb-22 12:33N 51°10' E 003°47'0 0.0
2017-Feb-22 11:33N 51°10' E 003°47'0 0.0
2017-Feb-22 10:33N 51°10' E 003°47'0 0.0
2017-Feb-22 09:33N 51°10' E 003°47'0 0.0
2017-Feb-22 08:33N 51°10' E 003°47'0 0.0
2017-Feb-22 07:33N 51°10' E 003°47'0 0.0
2017-Feb-22 06:33N 51°10' E 003°47'0 0.0
2017-Feb-22 05:33N 51°10' E 003°47'0 0.0
2017-Feb-22 04:33N 51°10' E 003°47'0 0.0
2017-Feb-22 03:33N 51°10' E 003°47'0 0.0
2017-Feb-22 02:33N 51°10' E 003°47'0 0.0
2017-Feb-22 01:33N 51°10' E 003°47'0 0.0
2017-Feb-22 00:33N 51°10' E 003°47'0 0.0
2017-Feb-21 23:33N 51°10' E 003°47'0 0.0
2017-Feb-21 22:33N 51°10' E 003°47'0 0.0
2017-Feb-21 21:33N 51°10' E 003°47'0 0.0
2017-Feb-21 20:30N 51°10' E 003°47'0 0.0
2017-Feb-21 19:30N 51°10' E 003°47'0 0.0
2017-Feb-21 18:33N 51°10' E 003°47'0 0.0
2017-Feb-21 17:33N 51°10' E 003°47'0 0.0
2017-Feb-21 16:33N 51°10' E 003°47'0 0.0
2017-Feb-21 15:30N 51°10' E 003°47'0 0.0
2017-Feb-21 14:30N 51°10' E 003°47'0 0.0
2017-Feb-21 13:33N 51°10' E 003°47'0 0.0
2017-Feb-21 12:33N 51°10' E 003°47'0 0.0
2017-Feb-21 11:33N 51°10' E 003°47'0 0.0
2017-Feb-21 10:33N 51°10' E 003°47'0 0.0
2017-Feb-21 09:32N 51°10' E 003°47'0 0.0
2017-Feb-21 08:32N 51°10' E 003°47'0 0.0
2017-Feb-21 07:32N 51°10' E 003°47'0 0.0
2017-Feb-21 06:32N 51°10' E 003°47'0 0.0
2017-Feb-21 05:32N 51°10' E 003°47'0 0.0
2017-Feb-21 04:32N 51°10' E 003°47'0 0.0
2017-Feb-21 03:32N 51°10' E 003°47'0 0.0
2017-Feb-21 02:32N 51°10' E 003°47'0 0.0
2017-Feb-21 01:32N 51°10' E 003°47'0 0.0
2017-Feb-21 00:32N 51°10' E 003°47'0 0.0
2017-Feb-20 23:32N 51°10' E 003°47'0 0.0
2017-Feb-20 22:32N 51°10' E 003°47'0 0.0
2017-Feb-20 21:32N 51°10' E 003°47'0 0.0
2017-Feb-20 20:32N 51°10' E 003°47'0 0.0
2017-Feb-20 19:32N 51°10' E 003°47'0 0.0
2017-Feb-20 18:32N 51°10' E 003°47'0 0.0
2017-Feb-20 17:32N 51°10' E 003°47'0 0.0
2017-Feb-20 16:32N 51°10' E 003°47'0 0.0
2017-Feb-20 15:32N 51°10' E 003°47'0 0.0
2017-Feb-20 14:32N 51°10' E 003°47'0 0.0
2017-Feb-20 13:32N 51°10' E 003°47'0 0.0
2017-Feb-20 12:32N 51°10' E 003°47'0 0.0
2017-Feb-20 11:29N 51°10' E 003°47'0 0.0
2017-Feb-20 10:32N 51°10' E 003°47'0 0.0
2017-Feb-20 09:32N 51°10' E 003°47'0 0.0
2017-Feb-20 08:29N 51°10' E 003°47'0 0.0
2017-Feb-20 07:32N 51°10' E 003°47'0 0.0
2017-Feb-20 06:29N 51°10' E 003°47'0 0.0
2017-Feb-20 05:32N 51°10' E 003°47'0 0.0
2017-Feb-20 04:32N 51°10' E 003°47'0 0.0
2017-Feb-20 03:26N 51°10' E 003°47'0 0.0
2017-Feb-20 02:32N 51°10' E 003°47'0 0.0
2017-Feb-20 01:32N 51°10' E 003°47'0 0.0
2017-Feb-20 00:26N 51°10' E 003°47'0 0.0
2017-Feb-19 23:26N 51°10' E 003°47'0 0.0
2017-Feb-19 22:32N 51°10' E 003°47'0 0.0
2017-Feb-19 21:32N 51°10' E 003°47'0 0.0
2017-Feb-19 20:32N 51°10' E 003°47'0 0.0
2017-Feb-19 19:32N 51°10' E 003°47'0 0.0
2017-Feb-19 18:32N 51°10' E 003°47'0 0.0
2017-Feb-19 17:29N 51°10' E 003°47'0 0.0
2017-Feb-19 16:32N 51°10' E 003°47'0 0.0
2017-Feb-19 15:32N 51°10' E 003°47'0 0.0
2017-Feb-19 14:29N 51°10' E 003°47'0 0.0
2017-Feb-19 13:32N 51°10' E 003°47'0 0.0
2017-Feb-19 12:32N 51°10' E 003°47'0 0.0
2017-Feb-19 11:32N 51°10' E 003°47'0 0.0
2017-Feb-19 10:32N 51°10' E 003°47'0 0.0
2017-Feb-19 09:23N 51°10' E 003°47'0 0.0
2017-Feb-19 08:32N 51°10' E 003°47'0 0.0
2017-Feb-19 07:32N 51°10' E 003°47'0 0.0
2017-Feb-19 06:23N 51°10' E 003°47'0 0.0
2017-Feb-19 05:32N 51°10' E 003°47'0 0.0
2017-Feb-19 04:32N 51°10' E 003°47'0 0.0
2017-Feb-19 03:29N 51°10' E 003°47'0 0.0
2017-Feb-19 02:26N 51°10' E 003°47'0 0.0
2017-Feb-19 01:32N 51°10' E 003°47'0 0.0
2017-Feb-19 00:32N 51°10' E 003°47'0 0.0
2017-Feb-18 23:32N 51°10' E 003°47'0 0.0
2017-Feb-18 22:32N 51°10' E 003°47'0 0.0
2017-Feb-18 21:32N 51°10' E 003°47'0 0.0
2017-Feb-18 20:32N 51°10' E 003°47'0 0.0
2017-Feb-18 19:32N 51°10' E 003°47'0 0.0
2017-Feb-18 18:32N 51°10' E 003°47'0 0.0
2017-Feb-18 17:32N 51°10' E 003°47'0 0.0
2017-Feb-18 16:32N 51°10' E 003°47'0 0.0
2017-Feb-18 15:32N 51°10' E 003°47'0 0.0
2017-Feb-18 14:32N 51°10' E 003°47'0 0.0
2017-Feb-18 13:32N 51°10' E 003°47'0 0.0
2017-Feb-18 12:32N 51°10' E 003°47'0 0.0
2017-Feb-18 11:32N 51°10' E 003°47'0 0.0
2017-Feb-18 10:32N 51°10' E 003°47'0 0.0
2017-Feb-18 09:32N 51°10' E 003°47'0 0.0
2017-Feb-18 08:29N 51°10' E 003°47'0 0.0
2017-Feb-18 07:32N 51°10' E 003°47'0 0.0
2017-Feb-18 06:32N 51°10' E 003°47'0 0.0
2017-Feb-18 05:32N 51°10' E 003°47'0 0.0
2017-Feb-18 04:32N 51°10' E 003°47'0 0.0
2017-Feb-18 03:32N 51°10' E 003°47'0 0.0
2017-Feb-18 02:32N 51°10' E 003°47'0 0.0
2017-Feb-18 01:26N 51°10' E 003°47'0 0.0
2017-Feb-18 00:32N 51°10' E 003°47'0 0.0
2017-Feb-17 23:32N 51°10' E 003°47'0 0.0
2017-Feb-17 22:32N 51°10' E 003°47'0 0.0
2017-Feb-17 21:17N 51°10' E 003°47'0 0.0
2017-Feb-17 20:32N 51°10' E 003°47'0 0.0
2017-Feb-17 19:32N 51°10' E 003°47'0 0.0
2017-Feb-17 18:29N 51°10' E 003°47'0 0.0
2017-Feb-17 17:32N 51°10' E 003°47'0 0.0
2017-Feb-17 16:32N 51°10' E 003°47'0 0.0
2017-Feb-17 15:32N 51°10' E 003°47'0 0.0
2017-Feb-17 14:32N 51°10' E 003°47'0 0.0
2017-Feb-17 13:32N 51°10' E 003°47'0 0.0
2017-Feb-17 12:32N 51°10' E 003°47'0 0.0
2017-Feb-17 11:32N 51°10' E 003°47'0 0.0
2017-Feb-17 10:32N 51°10' E 003°47'0 0.0
2017-Feb-17 09:29N 51°10' E 003°47'0 0.0
2017-Feb-17 08:29N 51°10' E 003°47'0 0.0
2017-Feb-17 07:32N 51°10' E 003°47'0 0.0
2017-Feb-17 06:32N 51°10' E 003°47'0 0.0
2017-Feb-17 05:32N 51°10' E 003°47'0 0.0
2017-Feb-17 04:32N 51°10' E 003°47'0 0.0
2017-Feb-17 03:14N 51°10' E 003°47'0 0.0
2017-Feb-17 02:32N 51°10' E 003°47'0 0.0
2017-Feb-17 01:32N 51°10' E 003°47'0 0.0
2017-Feb-17 00:32N 51°10' E 003°47'0 0.0
2017-Feb-16 23:29N 51°10' E 003°47'0 0.0
2017-Feb-16 22:26N 51°10' E 003°47'0 0.0
2017-Feb-16 21:32N 51°10' E 003°47'0 0.0
2017-Feb-16 20:32N 51°10' E 003°47'0 0.0
2017-Feb-16 19:32N 51°10' E 003°47'0 0.0
2017-Feb-16 18:32N 51°10' E 003°47'0 0.0
2017-Feb-16 17:32N 51°10' E 003°47'0 0.0
2017-Feb-16 16:32N 51°10' E 003°47'0 0.0
2017-Feb-16 15:32N 51°10' E 003°47'0 0.0
2017-Feb-16 14:32N 51°10' E 003°47'0 0.0
2017-Feb-16 13:32N 51°10' E 003°47'0 0.0
2017-Feb-16 12:29N 51°10' E 003°47'0 0.0
2017-Feb-16 11:32N 51°10' E 003°47'0 0.0
2017-Feb-16 10:29N 51°10' E 003°47'0 0.0
2017-Feb-16 09:26N 51°10' E 003°47'0 0.0
2017-Feb-16 08:29N 51°10' E 003°47'0 0.0
2017-Feb-16 07:32N 51°10' E 003°47'0 0.0
2017-Feb-16 06:26N 51°10' E 003°47'0 0.0
2017-Feb-16 05:32N 51°10' E 003°47'0 0.0
2017-Feb-16 04:32N 51°10' E 003°47'0 0.0
2017-Feb-16 03:32N 51°10' E 003°47'0 0.0
2017-Feb-16 02:32N 51°10' E 003°47'0 0.0
2017-Feb-16 01:26N 51°10' E 003°47'0 0.0
2017-Feb-16 00:26N 51°10' E 003°47'0 0.0
2017-Feb-15 23:32N 51°10' E 003°47'0 0.0
2017-Feb-15 22:32N 51°10' E 003°47'0 0.0
2017-Feb-15 21:32N 51°10' E 003°47'0 0.0
2017-Feb-15 20:26N 51°10' E 003°47'  
Track history (hours):
 
Tides and Currents Weather Stations Pressure Air Temp Water Temp Dewpoint Dewpoint Depression Visibility Wind Speed Wind Dir Waves Ship Positions

LS Concorde

Last reported at 2017-Feb-25 19:33 UTC. Time now 2017-Feb-26 19:03 UTC.
Position N 53°09' E 004°30'.

Length 99 m; draft 5.3 m.

Type: Tanker. MMSI: 236329000.

Date/timePositionNaut miles runAvg speedWind from/ knotsBaromVisibWave heightAir tempDewpointWater temp
2017-Feb-25 19:33N 53°09' E 004°30'1010.2
2017-Feb-25 18:33N 53°00' E 004°21'1010.4
2017-Feb-25 17:33N 52°51' E 004°14'1110.9
2017-Feb-25 16:33N 52°43' E 004°02'2510.9
2017-Feb-25 14:16N 52°24' E 003°36'2311.6
2017-Feb-25 12:16N 52°01' E 003°25'811.3
2017-Feb-25 11:31N 51°53' E 003°22'1010.3
2017-Feb-25 10:33N 51°44' E 003°16'1111.2
2017-Feb-25 09:33N 51°34' E 003°25'1010.2
2017-Feb-25 08:34N 51°26' E 003°35'10 9.5
2017-Feb-25 07:34N 51°21' E 003°48'2 2.1
2017-Feb-25 06:33N 51°19' E 003°49'3 3.0
2017-Feb-25 05:33N 51°16' E 003°50'4 4.3
2017-Feb-25 04:33N 51°12' E 003°48'0 0.0
2017-Feb-25 03:33N 51°12' E 003°48'0 0.0
2017-Feb-25 02:33N 51°12' E 003°48'0 0.0
2017-Feb-25 01:33N 51°12' E 003°48'0 0.0
2017-Feb-25 00:33N 51°12' E 003°48'0 0.0
2017-Feb-24 23:33N 51°12' E 003°48'0 0.0
2017-Feb-24 22:33N 51°12' E 003°48'0 0.0
2017-Feb-24 21:33N 51°12' E 003°48'0 0.0
2017-Feb-24 20:33N 51°12' E 003°48'0 0.0
2017-Feb-24 19:33N 51°12' E 003°48'0 0.0
2017-Feb-24 18:33N 51°12' E 003°48'0 0.0
2017-Feb-24 17:33N 51°12' E 003°48'0 0.0
2017-Feb-24 16:33N 51°12' E 003°48'0 0.0
2017-Feb-24 15:33N 51°12' E 003°48'0 0.0
2017-Feb-24 14:33N 51°12' E 003°48'0 0.0
2017-Feb-24 13:33N 51°12' E 003°48'0 0.0
2017-Feb-24 12:30N 51°12' E 003°48'0 0.0
2017-Feb-24 11:33N 51°12' E 003°48'0 0.0
2017-Feb-24 10:33N 51°12' E 003°48'0 0.0
2017-Feb-24 09:33N 51°12' E 003°48'0 0.0
2017-Feb-24 08:30N 51°12' E 003°48'0 0.0
2017-Feb-24 07:33N 51°12' E 003°48'0 0.0
2017-Feb-24 06:33N 51°12' E 003°48'0 0.0
2017-Feb-24 05:33N 51°12' E 003°48'0 0.0
2017-Feb-24 04:33N 51°12' E 003°48'0 0.0
2017-Feb-24 03:33N 51°12' E 003°48'0 0.0
2017-Feb-24 02:33N 51°12' E 003°48'0 0.0
2017-Feb-24 01:33N 51°12' E 003°48'0 0.0
2017-Feb-24 00:33N 51°12' E 003°48'0 0.0
2017-Feb-23 23:33N 51°12' E 003°48'0 0.0
2017-Feb-23 22:33N 51°12' E 003°48'0 0.0
2017-Feb-23 21:33N 51°12' E 003°48'0 0.0
2017-Feb-23 20:30N 51°12' E 003°48'0 0.0
2017-Feb-23 19:33N 51°12' E 003°48'0 0.0
2017-Feb-23 18:33N 51°12' E 003°48'0 0.0
2017-Feb-23 17:34N 51°12' E 003°48'3 2.8
2017-Feb-23 16:33N 51°10' E 003°47'0 0.0
2017-Feb-23 15:33N 51°10' E 003°47'0 0.0
2017-Feb-23 14:33N 51°10' E 003°47'0 0.0
2017-Feb-23 13:30N 51°10' E 003°47'0 0.0
2017-Feb-23 12:33N 51°10' E 003°47'0 0.0
2017-Feb-23 11:33N 51°10' E 003°47'0 0.0
2017-Feb-23 10:30N 51°10' E 003°47'0 0.0
2017-Feb-23 09:33N 51°10' E 003°47'0 0.0
2017-Feb-23 08:33N 51°10' E 003°47'0 0.0
2017-Feb-23 07:33N 51°10' E 003°47'0 0.0
2017-Feb-23 06:33N 51°10' E 003°47'0 0.0
2017-Feb-23 05:33N 51°10' E 003°47'0 0.0
2017-Feb-23 04:33N 51°10' E 003°47'0 0.0
2017-Feb-23 03:33N 51°10' E 003°47'0 0.0
2017-Feb-23 02:33N 51°10' E 003°47'0 0.0
2017-Feb-23 01:33N 51°10' E 003°47'0 0.0
2017-Feb-23 00:33N 51°10' E 003°47'0 0.0
2017-Feb-22 23:33N 51°10' E 003°47'0 0.0
2017-Feb-22 22:33N 51°10' E 003°47'0 0.0
2017-Feb-22 21:33N 51°10' E 003°47'0 0.0
2017-Feb-22 20:30N 51°10' E 003°47'0 0.0
2017-Feb-22 19:33N 51°10' E 003°47'0 0.0
2017-Feb-22 18:33N 51°10' E 003°47'0 0.0
2017-Feb-22 17:33N 51°10' E 003°47'0 0.0
2017-Feb-22 16:33N 51°10' E 003°47'0 0.0
2017-Feb-22 15:33N 51°10' E 003°47'0 0.0
2017-Feb-22 14:33N 51°10' E 003°47'0 0.0
2017-Feb-22 13:33N 51°10' E 003°47'0 0.0
2017-Feb-22 12:33N 51°10' E 003°47'0 0.0
2017-Feb-22 11:33N 51°10' E 003°47'0 0.0
2017-Feb-22 10:33N 51°10' E 003°47'0 0.0
2017-Feb-22 09:33N 51°10' E 003°47'0 0.0
2017-Feb-22 08:33N 51°10' E 003°47'0 0.0
2017-Feb-22 07:33N 51°10' E 003°47'0 0.0
2017-Feb-22 06:33N 51°10' E 003°47'0 0.0
2017-Feb-22 05:33N 51°10' E 003°47'0 0.0
2017-Feb-22 04:33N 51°10' E 003°47'0 0.0
2017-Feb-22 03:33N 51°10' E 003°47'0 0.0
2017-Feb-22 02:33N 51°10' E 003°47'0 0.0
2017-Feb-22 01:33N 51°10' E 003°47'0 0.0
2017-Feb-22 00:33N 51°10' E 003°47'0 0.0
2017-Feb-21 23:33N 51°10' E 003°47'0 0.0
2017-Feb-21 22:33N 51°10' E 003°47'0 0.0
2017-Feb-21 21:33N 51°10' E 003°47'0 0.0
2017-Feb-21 20:30N 51°10' E 003°47'0 0.0
2017-Feb-21 19:30N 51°10' E 003°47'0 0.0
2017-Feb-21 18:33N 51°10' E 003°47'0 0.0
2017-Feb-21 17:33N 51°10' E 003°47'0 0.0
2017-Feb-21 16:33N 51°10' E 003°47'0 0.0
2017-Feb-21 15:30N 51°10' E 003°47'0 0.0
2017-Feb-21 14:30N 51°10' E 003°47'0 0.0
2017-Feb-21 13:33N 51°10' E 003°47'0 0.0
2017-Feb-21 12:33N 51°10' E 003°47'0 0.0
2017-Feb-21 11:33N 51°10' E 003°47'0 0.0
2017-Feb-21 10:33N 51°10' E 003°47'0 0.0
2017-Feb-21 09:32N 51°10' E 003°47'0 0.0
2017-Feb-21 08:32N 51°10' E 003°47'0 0.0
2017-Feb-21 07:32N 51°10' E 003°47'0 0.0
2017-Feb-21 06:32N 51°10' E 003°47'0 0.0
2017-Feb-21 05:32N 51°10' E 003°47'0 0.0
2017-Feb-21 04:32N 51°10' E 003°47'0 0.0
2017-Feb-21 03:32N 51°10' E 003°47'0 0.0
2017-Feb-21 02:32N 51°10' E 003°47'0 0.0
2017-Feb-21 01:32N 51°10' E 003°47'0 0.0
2017-Feb-21 00:32N 51°10' E 003°47'0 0.0
2017-Feb-20 23:32N 51°10' E 003°47'0 0.0
2017-Feb-20 22:32N 51°10' E 003°47'0 0.0
2017-Feb-20 21:32N 51°10' E 003°47'0 0.0
2017-Feb-20 20:32N 51°10' E 003°47'0 0.0
2017-Feb-20 19:32N 51°10' E 003°47'0 0.0
2017-Feb-20 18:32N 51°10' E 003°47'0 0.0
2017-Feb-20 17:32N 51°10' E 003°47'0 0.0
2017-Feb-20 16:32N 51°10' E 003°47'0 0.0
2017-Feb-20 15:32N 51°10' E 003°47'0 0.0
2017-Feb-20 14:32N 51°10' E 003°47'0 0.0
2017-Feb-20 13:32N 51°10' E 003°47'0 0.0
2017-Feb-20 12:32N 51°10' E 003°47'0 0.0
2017-Feb-20 11:29N 51°10' E 003°47'0 0.0
2017-Feb-20 10:32N 51°10' E 003°47'0 0.0
2017-Feb-20 09:32N 51°10' E 003°47'0 0.0
2017-Feb-20 08:29N 51°10' E 003°47'0 0.0
2017-Feb-20 07:32N 51°10' E 003°47'0 0.0
2017-Feb-20 06:29N 51°10' E 003°47'0 0.0
2017-Feb-20 05:32N 51°10' E 003°47'0 0.0
2017-Feb-20 04:32N 51°10' E 003°47'0 0.0
2017-Feb-20 03:26N 51°10' E 003°47'0 0.0
2017-Feb-20 02:32N 51°10' E 003°47'0 0.0
2017-Feb-20 01:32N 51°10' E 003°47'0 0.0
2017-Feb-20 00:26N 51°10' E 003°47'0 0.0
2017-Feb-19 23:26N 51°10' E 003°47'0 0.0
2017-Feb-19 22:32N 51°10' E 003°47'0 0.0
2017-Feb-19 21:32N 51°10' E 003°47'0 0.0
2017-Feb-19 20:32N 51°10' E 003°47'0 0.0
2017-Feb-19 19:32N 51°10' E 003°47'0 0.0
2017-Feb-19 18:32N 51°10' E 003°47'0 0.0
2017-Feb-19 17:29N 51°10' E 003°47'0 0.0
2017-Feb-19 16:32N 51°10' E 003°47'0 0.0
2017-Feb-19 15:32N 51°10' E 003°47'0 0.0
2017-Feb-19 14:29N 51°10' E 003°47'0 0.0
2017-Feb-19 13:32N 51°10' E 003°47'0 0.0
2017-Feb-19 12:32N 51°10' E 003°47'0 0.0
2017-Feb-19 11:32N 51°10' E 003°47'0 0.0
2017-Feb-19 10:32N 51°10' E 003°47'0 0.0
2017-Feb-19 09:23N 51°10' E 003°47'0 0.0
2017-Feb-19 08:32N 51°10' E 003°47'0 0.0
2017-Feb-19 07:32N 51°10' E 003°47'0 0.0
2017-Feb-19 06:23N 51°10' E 003°47'0 0.0
2017-Feb-19 05:32N 51°10' E 003°47'0 0.0
2017-Feb-19 04:32N 51°10' E 003°47'0 0.0
2017-Feb-19 03:29N 51°10' E 003°47'0 0.0
2017-Feb-19 02:26N 51°10' E 003°47'0 0.0
2017-Feb-19 01:32N 51°10' E 003°47'0 0.0
2017-Feb-19 00:32N 51°10' E 003°47'0 0.0
2017-Feb-18 23:32N 51°10' E 003°47'0 0.0
2017-Feb-18 22:32N 51°10' E 003°47'0 0.0
2017-Feb-18 21:32N 51°10' E 003°47'0 0.0
2017-Feb-18 20:32N 51°10' E 003°47'0 0.0
2017-Feb-18 19:32N 51°10' E 003°47'0 0.0
2017-Feb-18 18:32N 51°10' E 003°47'0 0.0
2017-Feb-18 17:32N 51°10' E 003°47'0 0.0
2017-Feb-18 16:32N 51°10' E 003°47'0 0.0
2017-Feb-18 15:32N 51°10' E 003°47'0 0.0
2017-Feb-18 14:32N 51°10' E 003°47'0 0.0
2017-Feb-18 13:32N 51°10' E 003°47'0 0.0
2017-Feb-18 12:32N 51°10' E 003°47'0 0.0
2017-Feb-18 11:32N 51°10' E 003°47'0 0.0
2017-Feb-18 10:32N 51°10' E 003°47'0 0.0
2017-Feb-18 09:32N 51°10' E 003°47'0 0.0
2017-Feb-18 08:29N 51°10' E 003°47'0 0.0
2017-Feb-18 07:32N 51°10' E 003°47'0 0.0
2017-Feb-18 06:32N 51°10' E 003°47'0 0.0
2017-Feb-18 05:32N 51°10' E 003°47'0 0.0
2017-Feb-18 04:32N 51°10' E 003°47'0 0.0
2017-Feb-18 03:32N 51°10' E 003°47'0 0.0
2017-Feb-18 02:32N 51°10' E 003°47'0 0.0
2017-Feb-18 01:26N 51°10' E 003°47'0 0.0
2017-Feb-18 00:32N 51°10' E 003°47'0 0.0
2017-Feb-17 23:32N 51°10' E 003°47'0 0.0
2017-Feb-17 22:32N 51°10' E 003°47'0 0.0
2017-Feb-17 21:17N 51°10' E 003°47'0 0.0
2017-Feb-17 20:32N 51°10' E 003°47'0 0.0
2017-Feb-17 19:32N 51°10' E 003°47'0 0.0
2017-Feb-17 18:29N 51°10' E 003°47'0 0.0
2017-Feb-17 17:32N 51°10' E 003°47'0 0.0
2017-Feb-17 16:32N 51°10' E 003°47'0 0.0
2017-Feb-17 15:32N 51°10' E 003°47'0 0.0
2017-Feb-17 14:32N 51°10' E 003°47'0 0.0
2017-Feb-17 13:32N 51°10' E 003°47'0 0.0
2017-Feb-17 12:32N 51°10' E 003°47'0 0.0
2017-Feb-17 11:32N 51°10' E 003°47'0 0.0
2017-Feb-17 10:32N 51°10' E 003°47'0 0.0
2017-Feb-17 09:29N 51°10' E 003°47'0 0.0
2017-Feb-17 08:29N 51°10' E 003°47'0 0.0
2017-Feb-17 07:32N 51°10' E 003°47'0 0.0
2017-Feb-17 06:32N 51°10' E 003°47'0 0.0
2017-Feb-17 05:32N 51°10' E 003°47'0 0.0
2017-Feb-17 04:32N 51°10' E 003°47'0 0.0
2017-Feb-17 03:14N 51°10' E 003°47'0 0.0
2017-Feb-17 02:32N 51°10' E 003°47'0 0.0
2017-Feb-17 01:32N 51°10' E 003°47'0 0.0
2017-Feb-17 00:32N 51°10' E 003°47'0 0.0
2017-Feb-16 23:29N 51°10' E 003°47'0 0.0
2017-Feb-16 22:26N 51°10' E 003°47'0 0.0
2017-Feb-16 21:32N 51°10' E 003°47'0 0.0
2017-Feb-16 20:32N 51°10' E 003°47'0 0.0
2017-Feb-16 19:32N 51°10' E 003°47'0 0.0
2017-Feb-16 18:32N 51°10' E 003°47'0 0.0
2017-Feb-16 17:32N 51°10' E 003°47'0 0.0
2017-Feb-16 16:32N 51°10' E 003°47'0 0.0
2017-Feb-16 15:32N 51°10' E 003°47'0 0.0
2017-Feb-16 14:32N 51°10' E 003°47'0 0.0
2017-Feb-16 13:32N 51°10' E 003°47'0 0.0
2017-Feb-16 12:29N 51°10' E 003°47'0 0.0
2017-Feb-16 11:32N 51°10' E 003°47'0 0.0
2017-Feb-16 10:29N 51°10' E 003°47'0 0.0
2017-Feb-16 09:26N 51°10' E 003°47'0 0.0
2017-Feb-16 08:29N 51°10' E 003°47'0 0.0
2017-Feb-16 07:32N 51°10' E 003°47'0 0.0
2017-Feb-16 06:26N 51°10' E 003°47'0 0.0
2017-Feb-16 05:32N 51°10' E 003°47'0 0.0
2017-Feb-16 04:32N 51°10' E 003°47'0 0.0
2017-Feb-16 03:32N 51°10' E 003°47'0 0.0
2017-Feb-16 02:32N 51°10' E 003°47'0 0.0
2017-Feb-16 01:26N 51°10' E 003°47'0 0.0
2017-Feb-16 00:26N 51°10' E 003°47'0 0.0
2017-Feb-15 23:32N 51°10' E 003°47'0 0.0
2017-Feb-15 22:32N 51°10' E 003°47'0 0.0
2017-Feb-15 21:32N 51°10' E 003°47'0 0.0
2017-Feb-15 20:26N 51°10' E 003°47'  

Dump ship's entire track history